Tiempo atmosférico en la estación meteorológica de Lorca, Zarcilla de Ramos, Murcia (674 m.)



Fecha
DESCASC
Temp. máxima en grados centígrados (hora)
DESCASC
Temp. mínima en grados centígrados (hora)
DESCASC
Temp. media en grados centígrados
DESCASC
Racha de viento máxima en m/sg (hora)
DESCASC
Velocidad máxima media en intervalos de 10 minutos(hora)
DESCASC
Precipitaciones diarias en mm
DESCASC
Precipitaciones de 00:00 a 06:00 en mm
DESCASC
Precipitaciones de 06:00 a 12:00 en mm
DESCASC
Precipitaciones de 12:00 a 18:00 en mm
DESCASC
Precipitaciones de 18:00 a 24:00 en mm
DESCASC
17-10-2019 25.7 (15:40) 9.1 (03:30) 17.4 7.5 (08:10) 5.56 (08:10) 0 0 0 0 0
16-10-2019 22.8 (15:30) 6.5 (07:40) 14.6 5.83 (15:00) 3.89 (00:50) 0 0 0 0 0
15-10-2019 21.8 (16:10) 9.7 (22:50) 15.7 12.22 (09:30) 8.33 (09:30) 0 0 0 0 0
14-10-2019 25.9 (15:50) 11.8 (08:40) 18.8 15.56 (18:30) 10 (18:30) 0 0 0 0 0
13-10-2019 27.4 (16:00) 14.9 (00:00) 21.1 8.33 (16:40) 5.56 (17:10) 0 0 0 0 0
12-10-2019 24.9 (16:40) 13.4 (00:00) 19.1 5.56 (15:50) 3.89 (06:00) 0 0 0 0 0
11-10-2019 26 (15:00) 13 (07:20) 19.5 6.94 (15:10) 4.17 (16:50) 0 0 0 0 0
10-10-2019 26 (15:30) 13.4 (00:00) 19.7 8.89 (15:30) 5 (18:00) 0 0 0 0 0
09-10-2019 28.3 (15:20) 12.3 (00:00) 20.3 5.56 (16:20) 3.61 (17:10) 0 0 0 0 0
08-10-2019 26.2 (15:10) 14.8 (00:00) 20.5 6.94 (15:40) 4.17 (15:40) 0 0 0 0 0
07-10-2019 31.2 (16:30) 15.7 (00:00) 23.5 9.72 (15:50) 5.83 (07:10) 0 0 0 0 0
06-10-2019 31.4 (15:50) 14.2 (00:00) 22.8 7.22 (17:50) 5 (08:40) 0 0 0 0 0
05-10-2019 30.9 (14:50) 14.3 (08:30) 22.6 7.22 (18:20) 5 (18:10) 0 0 0 0 0
04-10-2019 29.7 (15:40) 13.3 (00:00) 21.5 7.78 (17:20) 5 (16:50) 0 0 0 0 0
03-10-2019 29.6 (16:10) 11.9 (00:00) 20.8 7.5 (17:00) 5 (17:20) 0 0 0 0 0
02-10-2019 29.8 (15:20) 14.6 (00:00) 22.2 8.06 (15:30) 5.28 (02:50) 0 0 0 0 0
01-10-2019 31.2 (15:40) 16 (00:00) 23.6 11.39 (15:20) 5.83 (15:20) 0 0 0 0 0
30-09-2019 31 (14:50) 13.8 (00:00) 22.4 6.67 (17:40) 4.72 (18:20) 0 0 0 0 0
29-09-2019 30.3 (13:40) 14.8 (00:00) 22.5 8.33 (16:30) 6.11 (16:10) 0 0 0 0 0
28-09-2019 28.8 (15:00) 14.7 (00:00) 21.7 8.06 (16:20) 5 (15:50) 0 0 0 0 0
27-09-2019 30 (15:50) 14.6 (00:00) 22.3 6.94 (16:00) 4.72 (17:00) 0 0 0 0 0
26-09-2019 27.4 (15:50) 13.5 (00:00) 20.4 8.06 (16:20) 4.17 (14:00) 0 0 0 0 0
25-09-2019 30.2 (15:20) 17.3 (00:00) 23.8 8.89 (04:50) 6.11 (04:50) 0 0 0 0 0
24-09-2019 31.4 (16:40) 13.8 (00:00) 22.6 11.11 (15:20) 4.72 (17:20) 0 0 0 0 0
23-09-2019 26.7 (17:00) 14.4 (00:00) 20.6 8.89 (18:20) 5 (07:40) 0 0 0 0 0
22-09-2019 28.9 (18:40) 17.9 (00:00) 23.4 10.28 (19:50) 6.39 (19:50) 0 0 0 0 0
21-09-2019 25.1 (16:40) 16.6 (00:00) 20.9 5.83 (20:30) 3.89 (19:00) 0 0 0 0 0
20-09-2019 -- (--) -- (--) -- -- (--) -- (--) -- 0 0 -- 0
19-09-2019 27.6 (15:50) 16.4 (00:00) 22 6.94 (18:20) 5.28 (18:20) 0 0 0 0 0

Gráficas

Temp. máximas Temp. mínimas Temp. medias Precipitaciones Rachas de viento máximas Velocidades máximas media en intervalos de 10 minutos

Datos horarios

Fecha y hora oficial Temperatura (ºC) Velocidad del viento (km/h) Dirección del viento Racha (km/h) Dirección de racha Precipitación (mm) Presión (hPa) Tendencia (hPa) Humedad (%)
2019-10-18 23:00:00 14.4 8 Noroeste 10 Noroeste 0 -- -- 47
2019-10-18 22:00:00 14.9 8 Noroeste 11 Noroeste 0 -- -- 46
2019-10-18 21:00:00 16.9 3 Noroeste 13 Nordeste 0 -- -- 44
2019-10-18 20:00:00 18.6 4 Norte 13 Este 0 -- -- 42
2019-10-18 19:00:00 21 11 Este 18 Sudeste 0 -- -- 36
2019-10-18 18:00:00 23.5 13 Sudeste 25 Este 0 -- -- 37
2019-10-18 17:00:00 25.5 15 Sudeste 23 Este 0 -- -- 38
2019-10-18 16:00:00 26 13 Sudeste 24 Sudeste 0 -- -- 34
2019-10-18 15:00:00 25.2 13 Sudeste 21 Sudeste 0 -- -- 36
2019-10-18 14:00:00 25.1 8 Sudeste 15 Sudeste 0 -- -- 37
2019-10-18 13:00:00 23.7 11 Sur 18 Sur 0 -- -- 39
2019-10-18 12:00:00 20.5 9 Noroeste 15 Noroeste 0 -- -- 42
2019-10-18 11:00:00 19.2 6 Sudeste 13 Noroeste 0 -- -- 43
2019-10-18 10:00:00 16.3 10 Norte 18 Noroeste 0 -- -- 49
2019-10-18 09:00:00 12.4 0 Calma 10 Norte 0 -- -- 58
2019-10-18 08:00:00 12.6 7 Norte 12 Noroeste 0 -- -- 54
2019-10-18 07:00:00 11.2 2 Noroeste 10 Norte 0 -- -- 57
2019-10-18 06:00:00 12.4 0 Calma 18 Norte 0 -- -- 52
2019-10-18 05:00:00 11.1 5 Este 7 Este 0 -- -- 56
2019-10-18 04:00:00 11.2 3 Norte 15 Norte 0 -- -- 57
2019-10-18 03:00:00 11.6 6 Norte 13 Norte 0 -- -- 54
2019-10-18 02:00:00 11.3 5 Norte 8 Norte 0 -- -- 59
2019-10-18 01:00:00 12.8 3 Sudoeste 9 Noroeste 0 -- -- 57
2019-10-18 00:00:00 13.9 0 Calma 16 Noroeste 0 -- -- 52
2019-10-17 23:00:00 13.6 6 Noroeste 11 Noroeste 0 -- -- 56
2019-10-17 22:00:00 14.7 8 Noroeste 13 Noroeste 0 -- -- 54
2019-10-17 21:00:00 14.8 4 Norte 5 Noroeste 0 -- -- 55
2019-10-17 20:00:00 18.4 3 Norte 10 Sudeste 0 -- -- 45
2019-10-17 19:00:00 22.3 6 Sur 15 Sudeste 0 -- -- 37
2019-10-17 18:00:00 22.8 9 Sudeste 17 Sudeste 0 -- -- 29
2019-10-17 17:00:00 24.5 9 Sudeste 24 Sudeste 0 -- -- 27
2019-10-17 16:00:00 25.5 14 Sudeste 22 Sudeste 0 -- -- 25
2019-10-17 15:00:00 25 7 Este 17 Sudeste 0 -- -- 24
2019-10-17 14:00:00 23.5 4 Sudoeste 14 Nordeste 0 -- -- 26
2019-10-17 13:00:00 22.6 3 Este 22 Sur 0 -- -- 26
2019-10-17 12:00:00 20.6 8 Noroeste 23 Noroeste 0 -- -- 31
2019-10-17 11:00:00 18.7 9 Sudoeste 22 Noroeste 0 -- -- 36
2019-10-17 10:00:00 15.6 9 Noroeste 22 Noroeste 0 -- -- 43
2019-10-17 09:00:00 13.3 15 Noroeste 27 Noroeste 0 -- -- 46
2019-10-17 08:00:00 12 14 Noroeste 22 Noroeste 0 -- -- 51
2019-10-17 07:00:00 10.2 0 Calma 14 Noroeste 0 -- -- 58
2019-10-17 06:00:00 9.4 4 Noroeste 13 Noroeste 0 -- -- 63
2019-10-17 05:00:00 9.6 4 Norte 10 Norte 0 -- -- 64
2019-10-17 04:00:00 10.2 6 Noroeste 15 Norte 0 -- -- 64
2019-10-17 03:00:00 9.6 3 Noroeste 6 Noroeste 0 -- -- 75
2019-10-17 02:00:00 10 0 Calma 12 Noroeste 0 -- -- 73
2019-10-17 01:00:00 11.4 9 Norte 12 Noroeste 0 -- -- 68
2019-10-17 00:00:00 10.7 5 Norte 10 Norte 0 -- -- 73
2019-10-16 23:00:00 12.3 8 Oeste 16 Noroeste 0 -- -- 70
2019-10-16 22:00:00 12.6 9 Noroeste 12 Noroeste 0 -- -- 69
2019-10-16 21:00:00 13.3 6 Norte 12 Nordeste 0 -- -- 65
2019-10-16 20:00:00 16.9 4 Sur 16 Sudeste 0 -- -- 53
2019-10-16 19:00:00 20.2 12 Sudeste 17 Sudeste 0 -- -- 45
2019-10-16 18:00:00 21.7 10 Sudeste 19 Sudeste 0 -- -- 40
2019-10-16 17:00:00 22.4 11 Sudeste 21 Sudeste 0 -- -- 35
2019-10-16 16:00:00 22.5 12 Sudeste 20 Sudeste 0 -- -- 33
2019-10-16 15:00:00 22.1 10 Sudeste 21 Sudeste 0 -- -- 32
2019-10-16 14:00:00 21.9 9 Sudeste 19 Sudeste 0 -- -- 35
2019-10-16 13:00:00 20.1 7 Sur 16 Sudeste 0 -- -- 36
2019-10-16 12:00:00 18.4 4 Sur 10 Sur 0 -- -- 39
2019-10-16 11:00:00 15.3 3 Sudoeste 14 Norte 0 -- -- 45
2019-10-16 10:00:00 12.9 11 Norte 16 Noroeste 0 -- -- 49
2019-10-16 09:00:00 9.1 7 Norte 12 Noroeste 0 -- -- 61
2019-10-16 08:00:00 6.8 2 Noroeste 9 Norte 0 -- -- 70
2019-10-16 07:00:00 7.1 4 Noroeste 11 Noroeste 0 -- -- 70
2019-10-16 06:00:00 7.8 3 Sudoeste 17 Noroeste 0 -- -- 67
2019-10-16 05:00:00 8.1 8 Noroeste 12 Noroeste 0 -- -- 66
2019-10-16 04:00:00 8.6 3 Noroeste 8 Noroeste 0 -- -- 65
2019-10-16 03:00:00 8.3 6 Noroeste 8 Noroeste 0 -- -- 71
2019-10-16 02:00:00 9.8 3 Sur 14 Noroeste 0 -- -- 68
2019-10-16 01:00:00 11.7 9 Noroeste 19 Noroeste 0 -- -- 60
2019-10-16 00:00:00 11.2 10 Noroeste 13 Noroeste 0 -- -- 68
2019-10-15 23:00:00 10.4 9 Noroeste 11 Noroeste 0 -- -- 68
2019-10-15 22:00:00 11.5 6 Noroeste 8 Noroeste 0 -- -- 64
2019-10-15 21:00:00 12.9 3 Norte 6 Nordeste 0 -- -- 57
2019-10-15 20:00:00 15.1 7 Este 15 Sudeste 0 -- -- 50
2019-10-15 19:00:00 18.9 12 Sudeste 23 Sudeste 0 -- -- 36
2019-10-15 18:00:00 21.1 18 Sudeste 24 Sudeste 0 -- -- 31
2019-10-15 17:00:00 21.8 10 Sur 21 Sudeste 0 -- -- 29
2019-10-15 16:00:00 21.7 9 Sudeste 20 Sudeste 0 -- -- 30
2019-10-15 15:00:00 21.4 9 Sur 22 Sudeste 0 -- -- 27
2019-10-15 14:00:00 20.6 8 Sudeste 20 Sudoeste 0 -- -- 27
2019-10-15 13:00:00 19 6 Sur 24 Sudoeste 0 -- -- 27
2019-10-15 12:00:00 17.5 12 Sudoeste 26 Oeste 0 -- -- 33
2019-10-15 11:00:00 15.4 8 Oeste 42 Noroeste 0 -- -- 46
2019-10-15 10:00:00 12.8 27 Oeste 44 Oeste 0 -- -- 59
2019-10-15 09:00:00 10.8 9 Noroeste 20 Noroeste 0 -- -- 65
2019-10-15 08:00:00 10.7 9 Noroeste 29 Oeste 0 -- -- 67
2019-10-15 07:00:00 11 14 Oeste 22 Oeste 0 -- -- 65
2019-10-15 06:00:00 11.3 9 Sudoeste 17 Sudoeste 0 -- -- 70
2019-10-15 05:00:00 11.2 10 Noroeste 15 Noroeste 0 -- -- 66
2019-10-15 04:00:00 13.7 12 Noroeste 25 Noroeste 0 -- -- 60
2019-10-15 03:00:00 14.7 8 Oeste 31 Oeste 0 -- -- 63
2019-10-15 02:00:00 15.3 19 Sudoeste 30 Sudoeste 0 -- -- 61
2019-10-15 01:00:00 14.3 9 Oeste 12 Oeste 0 -- -- 66
2019-10-15 00:00:00 16 9 Noroeste 33 Oeste 0 -- -- 60
2019-10-14 23:00:00 17.7 11 Oeste 28 Oeste 0 -- -- 54
2019-10-14 22:00:00 18.2 10 Sudoeste 26 Oeste 0 -- -- 50
2019-10-14 21:00:00 19.7 14 Oeste 50 Oeste 0 -- -- 45
2019-10-14 20:00:00 21 27 Oeste 53 Oeste 0 -- -- 41
2019-10-14 19:00:00 22.3 27 Oeste 56 Sudoeste 0 -- -- 40
2019-10-14 18:00:00 23 35 Oeste 54 Oeste 0 -- -- 43
2019-10-14 17:00:00 25 26 Sudoeste 44 Oeste 0 -- -- 42
2019-10-14 16:00:00 25.9 27 Sudoeste 41 Sudoeste 0 -- -- 37
2019-10-14 15:00:00 25.7 13 Sudeste 23 Sudeste 0 -- -- 45
2019-10-14 14:00:00 24.8 13 Sur 22 Sudeste 0 -- -- 50
2019-10-14 13:00:00 21.3 4 Sur 16 Sur 0 -- -- 69
2019-10-14 12:00:00 19.6 6 Sur 10 Sur 0 -- -- 77
2019-10-14 11:00:00 17.7 9 Nordeste 13 Norte 0 -- -- 81
2019-10-14 10:00:00 15.4 2 Sur 10 Este 0 -- -- 89
2019-10-14 09:00:00 12.9 4 Sudoeste 10 Norte 0 -- -- 94
2019-10-14 08:00:00 12.4 8 Norte 11 Norte 0 -- -- 91
2019-10-14 07:00:00 12.9 8 Norte 10 Norte 0 -- -- 94
2019-10-14 06:00:00 13.8 5 Noroeste 9 Noroeste 0 -- -- 95
2019-10-14 05:00:00 13.1 5 Noroeste 7 Norte 0 -- -- 95
2019-10-14 04:00:00 13.2 3 Noroeste 7 Noroeste 0 -- -- 93
2019-10-14 03:00:00 13.8 0 Calma 12 Norte 0 -- -- 92
2019-10-14 02:00:00 14.8 9 Norte 12 Noroeste 0 -- -- 92
2019-10-14 01:00:00 14.4 3 Norte 7 Norte 0 -- -- 90
2019-10-14 00:00:00 15 4 Norte 8 Noroeste 0 -- -- 89
2019-10-13 23:00:00 16.3 0 Calma 5 Sudeste 0 -- -- 85
2019-10-13 22:00:00 17 2 Nordeste 5 Nordeste 0 -- -- 84
2019-10-13 21:00:00 19.2 2 Este 7 Sudeste 0 -- -- 79
2019-10-13 20:00:00 20.8 4 Sudeste 16 Sudeste 0 -- -- 74
2019-10-13 19:00:00 22.9 13 Sudeste 25 Este 0 -- -- 63
2019-10-13 18:00:00 25 17 Sudeste 27 Este 0 -- -- 59
2019-10-13 17:00:00 26.3 18 Sudeste 30 Sudeste 0 -- -- 54
2019-10-13 16:00:00 27.4 14 Sudeste 22 Sudeste 0 -- -- 50
2019-10-13 15:00:00 27.2 12 Sudeste 22 Sudeste 0 -- -- 50
2019-10-13 14:00:00 26.3 9 Sur 17 Sur 0 -- -- 53
2019-10-13 13:00:00 24.5 6 Sudeste 13 Sudeste 0 -- -- 59
2019-10-13 12:00:00 22.2 4 Sur 9 Sudeste 0 -- -- 63
2019-10-13 11:00:00 19.6 5 Norte 14 Norte 0 -- -- 75
2019-10-13 10:00:00 17.1 12 Norte 16 Norte 0 -- -- 86
2019-10-13 09:00:00 15.5 9 Norte 16 Noroeste 0 -- -- 91
2019-10-13 08:00:00 15.1 9 Noroeste 13 Norte 0 -- -- 92
2019-10-13 07:00:00 15 9 Noroeste 17 Noroeste 0 -- -- 94
2019-10-13 06:00:00 15.2 12 Noroeste 16 Noroeste 0 -- -- 94
2019-10-13 05:00:00 15.5 10 Norte 17 Norte 0 -- -- 92
2019-10-13 04:00:00 16.1 7 Noroeste 11 Noroeste 0 -- -- 91
2019-10-13 03:00:00 16.8 0 Calma 12 Noroeste 0 -- -- 90
2019-10-13 02:00:00 16.5 9 Noroeste 14 Noroeste 0 -- -- 92
2019-10-13 01:00:00 15.8 6 Norte 11 Noroeste 0 -- -- 93
2019-10-13 00:00:00 16.2 6 Noroeste 9 Noroeste 0 -- -- 93
2019-10-12 23:00:00 16.2 4 Norte 7 Norte 0 -- -- 90
2019-10-12 22:00:00 18 5 Sudoeste 6 Sur 0 -- -- 84
2019-10-12 21:00:00 18.9 3 Sur 8 Sudeste 0 -- -- 79
2019-10-12 20:00:00 20.7 3 Sur 15 Sudeste 0 -- -- 72
2019-10-12 19:00:00 23.1 12 Sudeste 17 Sudeste 0 -- -- 65
2019-10-12 18:00:00 24.6 8 Sudeste 16 Sudeste 0 -- -- 59
2019-10-12 17:00:00 24.4 8 Sur 16 Sur 0 -- -- 57
2019-10-12 16:00:00 23.8 8 Sudeste 20 Sudeste 0 -- -- 60
2019-10-12 15:00:00 23.8 10 Sur 16 Sudoeste 0 -- -- 59
2019-10-12 14:00:00 21.7 5 Sudoeste 12 Sudoeste 0 -- -- 67
2019-10-12 13:00:00 20.7 4 Sudoeste 12 Sur 0 -- -- 70
2019-10-12 12:00:00 19.8 4 Sur 11 Sudeste 0 -- -- 70
2019-10-12 11:00:00 18.4 4 Sur 7 Este 0 -- -- 73
2019-10-12 10:00:00 17.3 5 Norte 8 Norte 0 -- -- 74
2019-10-12 09:00:00 13.4 3 Sur 5 Norte 0 -- -- 91
2019-10-12 08:00:00 13.4 0 Calma 16 Norte 0 -- -- 89
2019-10-12 07:00:00 14.6 7 Nordeste 17 Norte 0 -- -- 89
2019-10-12 06:00:00 15.1 14 Norte 18 Norte 0 -- -- 88
2019-10-12 05:00:00 14.3 3 Norte 6 Norte 0 -- -- 92
2019-10-12 04:00:00 15 6 Noroeste 13 Noroeste 0 -- -- 89
2019-10-12 03:00:00 14.9 6 Noroeste 8 Noroeste 0 -- -- 91
2019-10-12 02:00:00 14.6 2 Norte 6 Nordeste 0 -- -- 91
2019-10-12 01:00:00 15 3 Norte 5 Sudoeste 0 -- -- 91
2019-10-12 00:00:00 15.5 2 Oeste 8 Noroeste 0 -- -- 89
2019-10-11 23:00:00 15.8 6 Norte 8 Norte 0 -- -- 89
2019-10-11 22:00:00 17.3 3 Sudoeste 7 Oeste 0 -- -- 82
2019-10-11 21:00:00 19.1 3 Sur 10 Sudeste 0 -- -- 77
2019-10-11 20:00:00 20.5 5 Sudeste 17 Sur 0 -- -- 73
2019-10-11 19:00:00 22.7 9 Sudeste 18 Sudeste 0 -- -- 64
2019-10-11 18:00:00 23.5 13 Sudeste 22 Sur 0 -- -- 58
2019-10-11 17:00:00 23.8 13 Sur 21 Sur 0 -- -- 58
2019-10-11 16:00:00 25 9 Sudeste 25 Sudeste 0 -- -- 51
2019-10-11 15:00:00 26 13 Sur 21 Sudeste 0 -- -- 48
2019-10-11 14:00:00 24.7 10 Sur 19 Sudeste 0 -- -- 48
2019-10-11 13:00:00 23 6 Sur 18 Sudeste 0 -- -- 52
2019-10-11 12:00:00 21.5 3 Sur 13 Norte 0 -- -- 58
2019-10-11 11:00:00 19.7 9 Nordeste 16 Norte 0 -- -- 68
2019-10-11 10:00:00 18 8 Noroeste 12 Norte 0 -- -- 78
2019-10-11 09:00:00 14.5 6 Noroeste 11 Noroeste 0 -- -- 92
2019-10-11 08:00:00 13 0 Calma 5 Norte 0 -- -- 93
2019-10-11 07:00:00 13.3 4 Norte 9 Noroeste 0 -- -- 92
2019-10-11 06:00:00 13.8 6 Noroeste 8 Noroeste 0 -- -- 93
2019-10-11 05:00:00 14.5 5 Norte 6 Norte 0 -- -- 92
2019-10-11 04:00:00 15.4 2 Noroeste 7 Sudoeste 0 -- -- 92
2019-10-11 03:00:00 16 3 Sudoeste 5 Sudoeste 0 -- -- 90
2019-10-11 02:00:00 16.5 4 Sudoeste 6 Sudoeste 0 -- -- 92
2019-10-11 01:00:00 14.8 2 Sur 4 Sur 0 -- -- 88
2019-10-11 00:00:00 16.2 0 Calma 8 Sudoeste 0 -- -- 85
2019-10-10 23:00:00 17.2 6 Sur 8 Sudoeste 0 -- -- 84
2019-10-10 22:00:00 16.9 4 Sudoeste 8 Sudeste 0 -- -- 83
2019-10-10 21:00:00 18.1 0 Calma 9 Este 0 -- -- 80
2019-10-10 20:00:00 19.6 9 Este 22 Este 0 -- -- 75
2019-10-10 19:00:00 22.4 13 Sudeste 24 Sudeste 0 -- -- 63
2019-10-10 18:00:00 24.4 18 Sudeste 25 Sudeste 0 -- -- 57
2019-10-10 17:00:00 25.3 15 Sudeste 24 Sudeste 0 -- -- 54
2019-10-10 16:00:00 25.7 12 Sudeste 32 Oeste 0 -- -- 52
2019-10-10 15:00:00 25.2 12 Sudeste 23 Sudeste 0 -- -- 51
2019-10-10 14:00:00 25.1 11 Sudeste 21 Sudeste 0 -- -- 54
2019-10-10 13:00:00 23.4 4 Noroeste 15 Sur 0 -- -- 60
2019-10-10 12:00:00 22 4 Sur 9 Sur 0 -- -- 65
2019-10-10 11:00:00 20.4 4 Sur 10 Sur 0 -- -- 74
2019-10-10 10:00:00 18.6 2 Oeste 8 Oeste 0 -- -- 84
2019-10-10 09:00:00 16.6 4 Este 5 Este 0 -- -- 94
2019-10-10 08:00:00 16.4 0 Calma 5 Sudoeste 0 -- -- 94
2019-10-10 07:00:00 16.3 3 Sur 5 Sudoeste 0 -- -- 95
2019-10-10 06:00:00 16.1 3 Sudoeste 5 Oeste 0 -- -- 95
2019-10-10 05:00:00 15.8 0 Calma 5 Norte 0 -- -- 94
2019-10-10 04:00:00 14.5 5 Norte 6 Norte 0 -- -- 91
2019-10-10 03:00:00 13.5 3 Norte 7 Norte 0 -- -- 91
2019-10-10 02:00:00 14.4 3 Noroeste 5 Nordeste 0 -- -- 90
2019-10-10 01:00:00 15.6 0 Calma 8 Norte 0 -- -- 87
2019-10-10 00:00:00 16.1 3 Norte 4 Noroeste 0 -- -- 85
2019-10-09 23:00:00 17.1 3 Noroeste 9 Este 0 -- -- 82
2019-10-09 22:00:00 17.8 6 Este 8 Nordeste 0 -- -- 80
2019-10-09 21:00:00 20.1 4 Este 12 Sudeste 0 -- -- 72
2019-10-09 20:00:00 22.1 6 Sudeste 15 Sudeste 0 -- -- 65
2019-10-09 19:00:00 25.1 12 Sudeste 17 Sudeste 0 -- -- 55
2019-10-09 18:00:00 27.1 11 Sudeste 20 Sudeste 0 -- -- 48
2019-10-09 17:00:00 27.9 12 Sudeste 20 Sudeste 0 -- -- 46
2019-10-09 16:00:00 28.1 12 Sudeste 19 Sur 0 -- -- 46
2019-10-09 15:00:00 28 9 Sudeste 19 Sudeste 0 -- -- 47
2019-10-09 14:00:00 27.1 10 Sur 17 Sur 0 -- -- 51
2019-10-09 13:00:00 25.3 6 Sur 15 Sudeste 0 -- -- 57
2019-10-09 12:00:00 23.3 6 Sur 12 Sudeste 0 -- -- 62
2019-10-09 11:00:00 21.3 4 Sur 8 Sudoeste 0 -- -- 69
2019-10-09 10:00:00 18.2 3 Norte 9 Norte 0 -- -- 81
2019-10-09 09:00:00 13.2 5 Norte 7 Norte 0 -- -- 94
2019-10-09 08:00:00 12.9 0 Calma 10 Noroeste 0 -- -- 94
2019-10-09 07:00:00 12.8 5 Norte 9 Norte 0 -- -- 95
2019-10-09 06:00:00 12.8 5 Norte 6 Norte 0 -- -- 93
2019-10-09 05:00:00 13.7 0 Calma 9 Noroeste 0 -- -- 91
2019-10-09 04:00:00 14.4 5 Norte 10 Norte 0 -- -- 92
2019-10-09 03:00:00 14.6 3 Sudoeste 14 Norte 0 -- -- 89
2019-10-09 02:00:00 14.7 5 Norte 8 Norte 0 -- -- 92
2019-10-09 01:00:00 15 3 Noroeste 7 Noroeste 0 -- -- 88
2019-10-09 00:00:00 15 5 Norte 8 Norte 0 -- -- 89
2019-10-08 23:00:00 16 3 Noroeste 6 Noroeste 0 -- -- 85
2019-10-08 22:00:00 16.6 4 Norte 7 Nordeste 0 -- -- 84
2019-10-08 21:00:00 17.6 5 Nordeste 13 Este 0 -- -- 80
2019-10-08 20:00:00 19.8 8 Sudeste 16 Sudeste 0 -- -- 73
2019-10-08 19:00:00 22.4 11 Sudeste 17 Sudeste 0 -- -- 66
2019-10-08 18:00:00 23.9 13 Sudeste 18 Sudeste 0 -- -- 61
2019-10-08 17:00:00 24.8 14 Sudeste 21 Sudeste 0 -- -- 59
2019-10-08 16:00:00 25.2 13 Sudeste 25 Sudeste 0 -- -- 59
2019-10-08 15:00:00 25.4 14 Sudeste 24 Sur 0 -- -- 57
2019-10-08 14:00:00 25.2 15 Sudeste 23 Sudeste 0 -- -- 55
2019-10-08 13:00:00 24 9 Sudeste 19 Sudeste 0 -- -- 61
2019-10-08 12:00:00 23.4 12 Sudeste 19 Sur 0 -- -- 64
2019-10-08 11:00:00 21.1 7 Sudeste 11 Sudeste 0 -- -- 73
2019-10-08 10:00:00 18.7 3 Norte 8 Noroeste 0 -- -- 85
2019-10-08 09:00:00 16.6 4 Noroeste 6 Norte 0 -- -- 93
2019-10-08 08:00:00 15.5 3 Nordeste 5 Este 0 -- -- 92
2019-10-08 07:00:00 15.4 2 Sudoeste 9 Norte 0 -- -- 92
2019-10-08 06:00:00 14.8 8 Norte 11 Noroeste 0 -- -- 94
2019-10-08 05:00:00 15 4 Noroeste 7 Noroeste 0 -- -- 93
2019-10-08 04:00:00 15.7 0 Calma 12 Noroeste 0 -- -- 92
2019-10-08 03:00:00 16.7 8 Noroeste 10 Noroeste 0 -- -- 91
2019-10-08 02:00:00 17.6 3 Norte 7 Nordeste 0 -- -- 90
2019-10-08 01:00:00 18.3 4 Noroeste 6 Norte 0 -- -- 90
2019-10-08 00:00:00 17.3 3 Nordeste 6 Nordeste 0 -- -- 89
2019-10-07 23:00:00 17.7 0 Calma 5 Este 0 -- -- 88
2019-10-07 22:00:00 18.1 5 Este 9 Este 0 -- -- 83
2019-10-07 21:00:00 19.6 0 Calma 11 Este 0 -- -- 78
2019-10-07 20:00:00 22.1 6 Este 15 Sudeste 0 -- -- 64
2019-10-07 19:00:00 25.3 11 Sudeste 26 Este 0 -- -- 51
2019-10-07 18:00:00 29.1 17 Norte 27 Norte 0 -- -- 32
2019-10-07 17:00:00 30.3 18 Norte 35 Noroeste 0 -- -- 29
2019-10-07 16:00:00 30.7 20 Norte 35 Noroeste 0 -- -- 28
2019-10-07 15:00:00 30.3 14 Norte 30 Norte 0 -- -- 27
2019-10-07 14:00:00 29.2 12 Norte 27 Norte 0 -- -- 27
2019-10-07 13:00:00 28.9 13 Norte 30 Norte 0 -- -- 26
2019-10-07 12:00:00 26.8 11 Oeste 23 Oeste 0 -- -- 28
2019-10-07 11:00:00 24.7 8 Oeste 15 Noroeste 0 -- -- 32
2019-10-07 10:00:00 21.4 13 Noroeste 20 Noroeste 0 -- -- 39
2019-10-07 09:00:00 19 11 Noroeste 19 Noroeste 0 -- -- 44
2019-10-07 08:00:00 18 14 Noroeste 30 Noroeste 0 -- -- 46
2019-10-07 07:00:00 19.8 17 Oeste 25 Oeste 0 -- -- 41
2019-10-07 06:00:00 19.6 13 Noroeste 25 Oeste 0 -- -- 42
2019-10-07 05:00:00 20.1 13 Noroeste 23 Noroeste 0 -- -- 42
2019-10-07 04:00:00 19.8 14 Noroeste 27 Noroeste 0 -- -- 46
2019-10-07 03:00:00 17.2 5 Noroeste 18 Noroeste 0 -- -- 61
2019-10-07 02:00:00 15.7 2 Norte 7 Noroeste 0 -- -- 71
2019-10-07 01:00:00 17.1 3 Noroeste 13 Noroeste 0 -- -- 69
2019-10-07 00:00:00 18.1 5 Sudoeste 18 Noroeste 0 -- -- 65
2019-10-06 23:00:00 17.9 5 Noroeste 12 Noroeste 0 -- -- 64
2019-10-06 22:00:00 19.2 9 Noroeste 10 Noroeste 0 -- -- 63
2019-10-06 21:00:00 20.3 5 Noroeste 9 Norte 0 -- -- 60
2019-10-06 20:00:00 21.6 5 Nordeste 18 Este 0 -- -- 57
2019-10-06 19:00:00 25.6 13 Sudeste 24 Sudeste 0 -- -- 46
2019-10-06 18:00:00 28 15 Sudeste 26 Sudeste 0 -- -- 39
2019-10-06 17:00:00 30.2 14 Sudeste 24 Este 0 -- -- 32
2019-10-06 16:00:00 31 14 Sudeste 22 Sudeste 0 -- -- 30
2019-10-06 15:00:00 30.4 12 Sur 19 Sur 0 -- -- 29
2019-10-06 14:00:00 29.8 6 Este 18 Este 0 -- -- 29
2019-10-06 13:00:00 29 7 Sudeste 13 Norte 0 -- -- 30
2019-10-06 12:00:00 26.6 9 Norte 19 Noroeste 0 -- -- 36
2019-10-06 11:00:00 24 4 Noroeste 12 Noroeste 0 -- -- 41
2019-10-06 10:00:00 20.4 4 Sudoeste 14 Norte 0 -- -- 52
2019-10-06 09:00:00 18.6 12 Norte 25 Noroeste 0 -- -- 51
2019-10-06 08:00:00 16 8 Noroeste 17 Noroeste 0 -- -- 57
2019-10-06 07:00:00 15.1 2 Norte 9 Norte 0 -- -- 61
2019-10-06 06:00:00 14.7 0 Calma 6 Sudeste 0 -- -- 64
2019-10-06 05:00:00 15.2 4 Noroeste 10 Norte 0 -- -- 64
2019-10-06 04:00:00 15.8 3 Norte 20 Norte 0 -- -- 61
2019-10-06 03:00:00 16.2 15 Norte 20 Norte 0 -- -- 64
2019-10-06 02:00:00 15.5 3 Sudoeste 21 Noroeste 0 -- -- 66
2019-10-06 01:00:00 17.3 8 Noroeste 19 Noroeste 0 -- -- 61
2019-10-06 00:00:00 16.3 4 Norte 12 Noroeste 0 -- -- 65
2019-10-05 23:00:00 17.6 10 Noroeste 14 Noroeste 0 -- -- 60
2019-10-05 22:00:00 17.7 8 Noroeste 9 Noroeste 0 -- -- 65
2019-10-05 21:00:00 19.5 3 Norte 10 Este 0 -- -- 60
2019-10-05 20:00:00 21.8 8 Este 21 Sudeste 0 -- -- 49
2019-10-05 19:00:00 25.5 13 Sudeste 26 Sudeste 0 -- -- 42
2019-10-05 18:00:00 28.3 17 Sudeste 25 Sudeste 0 -- -- 34
2019-10-05 17:00:00 29.5 16 Sudeste 25 Sudeste 0 -- -- 33
2019-10-05 16:00:00 30.4 17 Sudeste 25 Sudeste 0 -- -- 28
2019-10-05 15:00:00 30.3 14 Sudeste 22 Sudeste 0 -- -- 27
2019-10-05 14:00:00 30.1 11 Sudeste 15 Sudeste 0 -- -- 27
2019-10-05 13:00:00 28.8 4 Sur 14 Norte 0 -- -- 28
2019-10-05 12:00:00 26.4 7 Norte 12 Norte 0 -- -- 31
2019-10-05 11:00:00 24.1 3 Este 6 Este 0 -- -- 36
2019-10-05 10:00:00 19.9 0 Calma 6 Sudoeste 0 -- -- 47
2019-10-05 09:00:00 16 4 Norte 9 Norte 0 -- -- 60
2019-10-05 08:00:00 15 0 Calma 19 Norte 0 -- -- 56
2019-10-05 07:00:00 16.1 11 Norte 18 Norte 0 -- -- 53
2019-10-05 06:00:00 16.9 10 Norte 18 Noroeste 0 -- -- 51
2019-10-05 05:00:00 18.5 17 Noroeste 22 Noroeste 0 -- -- 48
2019-10-05 04:00:00 16.3 12 Norte 22 Norte 0 -- -- 53
2019-10-05 03:00:00 17.8 14 Noroeste 21 Noroeste 0 -- -- 49
2019-10-05 02:00:00 17.8 10 Noroeste 19 Noroeste 0 -- -- 50
2019-10-05 01:00:00 16.9 8 Oeste 15 Noroeste 0 -- -- 60
2019-10-05 00:00:00 18 8 Noroeste 19 Noroeste 0 -- -- 56
2019-10-04 23:00:00 17.5 13 Norte 17 Noroeste 0 -- -- 57
2019-10-04 22:00:00 17.2 8 Noroeste 11 Noroeste 0 -- -- 59
2019-10-04 21:00:00 18.8 6 Norte 10 Noroeste 0 -- -- 54
2019-10-04 20:00:00 21.5 6 Este 16 Sudeste 0 -- -- 47
2019-10-04 19:00:00 25.2 13 Sudeste 22 Sudeste 0 -- -- 37
2019-10-04 18:00:00 26.8 16 Sudeste 28 Sudeste 0 -- -- 35
2019-10-04 17:00:00 28.3 16 Sudeste 26 Sudeste 0 -- -- 33
2019-10-04 16:00:00 29.2 13 Sudeste 23 Sur 0 -- -- 29
2019-10-04 15:00:00 29.3 10 Sudeste 26 Sur 0 -- -- 27
2019-10-04 14:00:00 28.9 9 Sudeste 19 Sudeste 0 -- -- 28
2019-10-04 13:00:00 27.9 7 Sudeste 12 Este 0 -- -- 29
2019-10-04 12:00:00 26.2 3 Nordeste 8 Este 0 -- -- 32
2019-10-04 11:00:00 23 3 Este 6 Sudoeste 0 -- -- 37
2019-10-04 10:00:00 18.6 3 Sudoeste 5 Sudoeste 0 -- -- 51
2019-10-04 09:00:00 14.7 3 Sur 6 Noroeste 0 -- -- 60
2019-10-04 08:00:00 14.8 6 Noroeste 21 Noroeste 0 -- -- 56
2019-10-04 07:00:00 14.4 6 Noroeste 21 Noroeste 0 -- -- 57
2019-10-04 06:00:00 15.9 14 Norte 23 Noroeste 0 -- -- 52
2019-10-04 05:00:00 16.8 11 Noroeste 22 Noroeste 0 -- -- 48
2019-10-04 04:00:00 17.2 14 Noroeste 23 Noroeste 0 -- -- 46
2019-10-04 03:00:00 17.3 12 Noroeste 19 Noroeste 0 -- -- 45
2019-10-04 02:00:00 14.4 7 Este 17 Noroeste 0 -- -- 60
2019-10-04 01:00:00 17.7 6 Oeste 18 Noroeste 0 -- -- 47
2019-10-04 00:00:00 17.1 12 Norte 20 Noroeste 0 -- -- 52
2019-10-03 23:00:00 18.8 10 Noroeste 20 Noroeste 0 -- -- 45
2019-10-03 22:00:00 18.7 12 Noroeste 18 Noroeste 0 -- -- 56
2019-10-03 21:00:00 17.6 8 Noroeste 10 Noroeste 0 -- -- 61
2019-10-03 20:00:00 20 6 Noroeste 10 Sudeste 0 -- -- 55
2019-10-03 19:00:00 23.9 9 Sudeste 18 Sudeste 0 -- -- 42
2019-10-03 18:00:00 25.6 14 Sudeste 26 Este 0 -- -- 37
2019-10-03 17:00:00 28 17 Sudeste 27 Sudeste 0 -- -- 32
2019-10-03 16:00:00 29 9 Sur 26 Sudoeste 0 -- -- 26
2019-10-03 15:00:00 27.9 16 Sudoeste 25 Sudoeste 0 -- -- 28
2019-10-03 14:00:00 26.8 12 Oeste 26 Oeste 0 -- -- 28
2019-10-03 13:00:00 25.4 14 Sudoeste 22 Sudoeste 0 -- -- 32
2019-10-03 12:00:00 23.9 7 Sudoeste 17 Sudoeste 0 -- -- 34
2019-10-03 11:00:00 21.6 4 Este 10 Sudeste 0 -- -- 39
2019-10-03 10:00:00 18.4 5 Sur 10 Nordeste 0 -- -- 51
2019-10-03 09:00:00 13.1 4 Nordeste 8 Nordeste 0 -- -- 63
2019-10-03 08:00:00 11.9 3 Sur 10 Norte 0 -- -- 63
2019-10-03 07:00:00 13.6 10 Norte 17 Norte 0 -- -- 56
2019-10-03 06:00:00 12.9 4 Nordeste 17 Noroeste 0 -- -- 59
2019-10-03 05:00:00 14.8 6 Noroeste 13 Noroeste 0 -- -- 52
2019-10-03 04:00:00 15.2 8 Oeste 14 Norte 0 -- -- 49
2019-10-03 03:00:00 14.8 6 Este 17 Noroeste 0 -- -- 50
2019-10-03 02:00:00 16.6 14 Noroeste 19 Noroeste 0 -- -- 45
2019-10-03 01:00:00 16.4 14 Noroeste 20 Noroeste 0 -- -- 46
2019-10-03 00:00:00 14.6 4 Norte 12 Norte 0 -- -- 53
2019-10-02 23:00:00 16.3 6 Norte 15 Noroeste 0 -- -- 48
2019-10-02 22:00:00 18.1 10 Noroeste 15 Noroeste 0 -- -- 46
2019-10-02 21:00:00 19.7 3 Noroeste 11 Este 0 -- -- 64
2019-10-02 20:00:00 21.8 5 Este 15 Sur 0 -- -- 58
2019-10-02 19:00:00 25.5 11 Sudeste 19 Este 0 -- -- 47
2019-10-02 18:00:00 26.9 14 Sudeste 23 Este 0 -- -- 37
2019-10-02 17:00:00 28.2 13 Este 21 Sudeste 0 -- -- 34
2019-10-02 16:00:00 28.9 14 Norte 29 Sudoeste 0 -- -- 25
2019-10-02 15:00:00 29.1 13 Oeste 25 Oeste 0 -- -- 23
2019-10-02 14:00:00 28 11 Sur 26 Sudoeste 0 -- -- 28
2019-10-02 13:00:00 26.3 14 Sudoeste 26 Sudoeste 0 -- -- 32
2019-10-02 12:00:00 24.6 7 Oeste 17 Oeste 0 -- -- 38
2019-10-02 11:00:00 22.6 5 Oeste 23 Noroeste 0 -- -- 44
2019-10-02 10:00:00 19.2 17 Norte 26 Norte 0 -- -- 55
2019-10-02 09:00:00 17.5 14 Norte 22 Norte 0 -- -- 60
2019-10-02 08:00:00 17.4 9 Noroeste 21 Noroeste 0 -- -- 58
2019-10-02 07:00:00 16.8 9 Norte 27 Noroeste 0 -- -- 60
2019-10-02 06:00:00 17.9 13 Norte 23 Norte 0 -- -- 56
2019-10-02 05:00:00 17.7 14 Norte 19 Norte 0 -- -- 56
2019-10-02 04:00:00 18.4 14 Noroeste 25 Oeste 0 -- -- 52
2019-10-02 03:00:00 20.1 19 Oeste 26 Oeste 0 -- -- 47
2019-10-02 02:00:00 19.1 12 Noroeste 18 Oeste 0 -- -- 45
2019-10-02 01:00:00 20.3 10 Noroeste 19 Oeste 0 -- -- 42
2019-10-02 00:00:00 20.9 12 Oeste 27 Oeste 0 -- -- 38
2019-10-01 23:00:00 22.3 10 Oeste 35 Oeste 0 -- -- 35
2019-10-01 22:00:00 23.9 18 Oeste 30 Oeste 0 -- -- 33
2019-10-01 21:00:00 23.9 14 Oeste 21 Oeste 0 -- -- 31
2019-10-01 20:00:00 25.2 16 Oeste 30 Noroeste 0 -- -- 27
2019-10-01 19:00:00 27.1 17 Noroeste 29 Noroeste 0 -- -- 24
2019-10-01 18:00:00 29.1 17 Noroeste 28 Noroeste 0 -- -- 21
2019-10-01 17:00:00 30.8 15 Oeste 31 Sudoeste 0 -- -- 19
2019-10-01 16:00:00 31.1 14 Sudoeste 41 Oeste 0 -- -- 25
2019-10-01 15:00:00 30.7 15 Sudoeste 31 Sudoeste 0 -- -- 26
2019-10-01 14:00:00 29.4 17 Sudoeste 29 Sudoeste 0 -- -- 29
2019-10-01 13:00:00 27.5 9 Sudoeste 22 Sudoeste 0 -- -- 32
2019-10-01 12:00:00 26.7 17 Sudoeste 26 Oeste 0 -- -- 33
2019-10-01 11:00:00 23.4 10 Sudoeste 18 Norte 0 -- -- 42
2019-10-01 10:00:00 20.6 11 Norte 18 Noroeste 0 -- -- 46
2019-10-01 09:00:00 18.4 8 Norte 19 Noroeste 0 -- -- 52
2019-10-01 08:00:00 19.8 12 Noroeste 22 Noroeste 0 -- -- 47
2019-10-01 07:00:00 18.8 12 Noroeste 22 Noroeste 0 -- -- 50
2019-10-01 06:00:00 19.2 14 Noroeste 19 Noroeste 0 -- -- 50
2019-10-01 05:00:00 19.6 14 Noroeste 22 Noroeste 0 -- -- 49
2019-10-01 04:00:00 19.1 16 Noroeste 22 Noroeste 0 -- -- 53
2019-10-01 03:00:00 19.2 14 Noroeste 22 Noroeste 0 -- -- 52
2019-10-01 02:00:00 16.5 6 Norte 9 Sudoeste 0 -- -- 78
2019-10-01 01:00:00 18.4 7 Noroeste 13 Norte 0 -- -- 69
2019-10-01 00:00:00 19 9 Noroeste 12 Noroeste 0 -- -- 73
2019-09-30 23:00:00 18.4 4 Norte 6 Norte 0 -- -- 76
2019-09-30 22:00:00 20.7 0 Calma 4 Este 0 -- -- 68
2019-09-30 21:00:00 22.4 2 Este 5 Este 0 -- -- 64
2019-09-30 20:00:00 24.8 5 Sudeste 19 Sudeste 0 -- -- 50
2019-09-30 19:00:00 27.3 16 Sudeste 24 Sudeste 0 -- -- 41
2019-09-30 18:00:00 28.9 14 Sudeste 24 Sudeste 0 -- -- 36
2019-09-30 17:00:00 29.9 13 Sudeste 23 Sudeste 0 -- -- 39
2019-09-30 16:00:00 30.5 14 Sudeste 22 Sur 0 -- -- 34
2019-09-30 15:00:00 30.9 14 Sudeste 22 Sur 0 -- -- 32
2019-09-30 14:00:00 30.7 12 Sudeste 20 Sur 0 -- -- 29
2019-09-30 13:00:00 29.5 5 Sur 12 Sudeste 0 -- -- 29
2019-09-30 12:00:00 27.6 5 Sur 9 Sur 0 -- -- 33
2019-09-30 11:00:00 23.6 3 Sur 5 Sur 0 -- -- 45
2019-09-30 10:00:00 19.1 0 Calma 5 Sudoeste 0 -- -- 57
2019-09-30 09:00:00 16 0 Calma 6 Sudoeste 0 -- -- 68
2019-09-30 08:00:00 14.2 0 Calma 6 Sudoeste 0 -- -- 73
2019-09-30 07:00:00 13.8 3 Norte 4 Nordeste 0 -- -- 76
2019-09-30 06:00:00 15 0 Calma 5 Sudoeste 0 -- -- 76
2019-09-30 05:00:00 17.1 4 Sudoeste 19 Norte 0 -- -- 72
2019-09-30 04:00:00 16.3 2 Nordeste 8 Noroeste 0 -- -- 79
2019-09-30 03:00:00 17.3 4 Norte 16 Norte 0 -- -- 74
2019-09-30 02:00:00 17 2 Sudoeste 5 Noroeste 0 -- -- 78
2019-09-30 01:00:00 18 5 Oeste 13 Norte 0 -- -- 75
2019-09-30 00:00:00 19.2 9 Noroeste 12 Noroeste 0 -- -- 72
2019-09-29 23:00:00 19.2 0 Calma 8 Noroeste 0 -- -- 70
2019-09-29 22:00:00 20.2 8 Noroeste 11 Noroeste 0 -- -- 66
2019-09-29 21:00:00 21.5 5 Noroeste 7 Este 0 -- -- 66
2019-09-29 20:00:00 24.5 5 Sur 21 Este 0 -- -- 59
2019-09-29 19:00:00 26.6 12 Sudeste 22 Este 0 -- -- 52
2019-09-29 18:00:00 27.9 15 Sudeste 23 Este 0 -- -- 53
2019-09-29 17:00:00 29.1 15 Este 30 Sudeste 0 -- -- 45
2019-09-29 16:00:00 29.8 18 Sudeste 27 Sudeste 0 -- -- 43
2019-09-29 15:00:00 29.7 17 Sudeste 22 Este 0 -- -- 38
2019-09-29 14:00:00 30 14 Sudeste 21 Sudeste 0 -- -- 43
2019-09-29 13:00:00 29.8 12 Sur 20 Sur 0 -- -- 42
2019-09-29 12:00:00 27.3 3 Sudeste 8 Sudeste 0 -- -- 47
2019-09-29 11:00:00 24.1 4 Sudoeste 10 Norte 0 -- -- 64
2019-09-29 10:00:00 20 4 Sur 12 Norte 0 -- -- 82
2019-09-29 09:00:00 15.8 5 Noroeste 9 Norte 0 -- -- 97
2019-09-29 08:00:00 15.2 0 Calma 5 Sudoeste 0 -- -- 96
2019-09-29 07:00:00 15.2 4 Norte 9 Norte 0 -- -- 96
2019-09-29 06:00:00 16.2 0 Calma 5 Norte 0 -- -- 96
2019-09-29 05:00:00 16.8 2 Norte 10 Noroeste 0 -- -- 95
2019-09-29 04:00:00 16.8 6 Norte 12 Norte 0 -- -- 95
2019-09-29 03:00:00 17.9 5 Noroeste 10 Noroeste 0 -- -- 94
2019-09-29 02:00:00 18.3 7 Noroeste 10 Noroeste 0 -- -- 92
2019-09-29 01:00:00 18.4 5 Sudoeste 9 Sudoeste 0 -- -- 92
2019-09-29 00:00:00 18.5 4 Sudoeste 6 Sudoeste 0 -- -- 90
2019-09-28 23:00:00 19.3 5 Sudoeste 7 Sudoeste 0 -- -- 85
2019-09-28 22:00:00 20.3 3 Sur 9 Este 0 -- -- 78
2019-09-28 21:00:00 21.6 7 Sudeste 17 Este 0 -- -- 72
2019-09-28 20:00:00 23.1 10 Este 19 Este 0 -- -- 66
2019-09-28 19:00:00 25.2 14 Este 27 Este 0 -- -- 59
2019-09-28 18:00:00 26.7 16 Sudeste 24 Sudeste 0 -- -- 55
2019-09-28 17:00:00 27.3 15 Sudeste 29 Sudeste 0 -- -- 52
2019-09-28 16:00:00 27.8 18 Sudeste 27 Sudeste 0 -- -- 49
2019-09-28 15:00:00 28.8 18 Sudeste 26 Sudeste 0 -- -- 47
2019-09-28 14:00:00 28.3 11 Sudeste 22 Sur 0 -- -- 45
2019-09-28 13:00:00 27.9 10 Sudeste 17 Sur 0 -- -- 46
2019-09-28 12:00:00 26 4 Sur 9 Sur 0 -- -- 50
2019-09-28 11:00:00 23 3 Sur 8 Sur 0 -- -- 57
2019-09-28 10:00:00 19.5 2 Sur 6 Sudoeste 0 -- -- 69
2019-09-28 09:00:00 16.5 0 Calma 4 Noroeste 0 -- -- 83
2019-09-28 08:00:00 14.8 2 Sur 4 Noroeste 0 -- -- 86
2019-09-28 07:00:00 15.6 0 Calma 12 Noroeste 0 -- -- 85
2019-09-28 06:00:00 15.9 3 Norte 8 Norte 0 -- -- 86
2019-09-28 05:00:00 15.7 2 Nordeste 6 Sudoeste 0 -- -- 86
2019-09-28 04:00:00 16.9 0 Calma 12 Noroeste 0 -- -- 83
2019-09-28 03:00:00 17 2 Norte 6 Oeste 0 -- -- 84
2019-09-28 02:00:00 17.5 0 Calma 10 Noroeste 0 -- -- 82
2019-09-28 01:00:00 18.8 4 Noroeste 10 Noroeste 0 -- -- 78
2019-09-28 00:00:00 19.1 8 Noroeste 13 Noroeste 0 -- -- 77
2019-09-27 23:00:00 19.4 7 Noroeste 10 Noroeste 0 -- -- 76
2019-09-27 22:00:00 20.4 8 Noroeste 9 Noroeste 0 -- -- 73
2019-09-27 21:00:00 21.9 8 Este 9 Este 0 -- -- 67
2019-09-27 20:00:00 24.7 5 Sudeste 18 Sudeste 0 -- -- 59
2019-09-27 19:00:00 26.7 14 Sudeste 19 Este 0 -- -- 53
2019-09-27 18:00:00 28.2 13 Sudeste 22 Sudeste 0 -- -- 50
2019-09-27 17:00:00 29.4 17 Sudeste 23 Sudeste 0 -- -- 48
2019-09-27 16:00:00 29.8 11 Sur 25 Sudeste 0 -- -- 38
2019-09-27 15:00:00 29.6 13 Sudeste 24 Sudeste 0 -- -- 38
2019-09-27 14:00:00 29.4 10 Sudeste 21 Sudeste 0 -- -- 40
2019-09-27 13:00:00 28.6 7 Sudeste 13 Sudeste 0 -- -- 37
2019-09-27 12:00:00 26.8 3 Este 12 Norte 0 -- -- 41
2019-09-27 11:00:00 24.1 12 Norte 16 Norte 0 -- -- 51
2019-09-27 10:00:00 20.9 4 Oeste 12 Norte 0 -- -- 69
2019-09-27 09:00:00 17.9 12 Noroeste 18 Noroeste 0 -- -- 79
2019-09-27 08:00:00 14.9 5 Norte 12 Noroeste 0 -- -- 94
2019-09-27 07:00:00 15.5 5 Noroeste 14 Noroeste 0 -- -- 90
2019-09-27 06:00:00 15 0 Calma 4 Sudoeste 0 -- -- 93
2019-09-27 05:00:00 15.3 2 Norte 6 Sudoeste 0 -- -- 91
2019-09-27 04:00:00 16.5 5 Sudoeste 13 Noroeste 0 -- -- 89
2019-09-27 03:00:00 16.7 12 Norte 14 Norte 0 -- -- 92
2019-09-27 02:00:00 15.9 4 Norte 7 Norte 0 -- -- 93
2019-09-27 01:00:00 16.5 0 Calma 6 Norte 0 -- -- 91
2019-09-27 00:00:00 17 5 Norte 6 Norte 0 -- -- 90
2019-09-26 23:00:00 18.4 3 Noroeste 6 Noroeste 0 -- -- 86
2019-09-26 22:00:00 19.2 4 Nordeste 6 Nordeste 0 -- -- 85
2019-09-26 21:00:00 21.3 3 Sudeste 14 Este 0 -- -- 77
2019-09-26 20:00:00 22.9 12 Sudeste 19 Sudeste 0 -- -- 68
2019-09-26 19:00:00 25.1 13 Sudeste 23 Este 0 -- -- 57
2019-09-26 18:00:00 26.5 13 Sudeste 23 Sudeste 0 -- -- 50
2019-09-26 17:00:00 27 14 Sudeste 29 Sudeste 0 -- -- 50
2019-09-26 16:00:00 27 15 Sudeste 26 Sudeste 0 -- -- 48
2019-09-26 15:00:00 26.9 13 Sudeste 23 Sudeste 0 -- -- 46
2019-09-26 14:00:00 26.6 15 Sudeste 25 Sudeste 0 -- -- 45
2019-09-26 13:00:00 25.9 13 Sudeste 20 Sur 0 -- -- 45
2019-09-26 12:00:00 24.5 6 Sudeste 10 Sur 0 -- -- 51
2019-09-26 11:00:00 21.9 3 Sur 7 Sur 0 -- -- 59
2019-09-26 10:00:00 18.4 0 Calma 4 Sur 0 -- -- 72
2019-09-26 09:00:00 15.3 2 Sudoeste 5 Norte 0 -- -- 83
2019-09-26 08:00:00 13.5 2 Noroeste 4 Oeste 0 -- -- 87
2019-09-26 07:00:00 14.1 0 Calma 4 Oeste 0 -- -- 85
2019-09-26 06:00:00 14.8 2 Oeste 8 Noroeste 0 -- -- 82
2019-09-26 05:00:00 15.3 9 Norte 12 Noroeste 0 -- -- 84
2019-09-26 04:00:00 15.5 0 Calma 2 Sudoeste 0 -- -- 79
2019-09-26 03:00:00 15.7 0 Calma 8 Noroeste 0 -- -- 77
2019-09-26 02:00:00 16.4 2 Sudoeste 8 Noroeste 0 -- -- 74
2019-09-26 01:00:00 16.9 7 Norte 9 Noroeste 0 -- -- 73
2019-09-26 00:00:00 17.6 0 Calma 10 Noroeste 0 -- -- 69
2019-09-25 23:00:00 18.5 6 Noroeste 13 Noroeste 0 -- -- 67
2019-09-25 22:00:00 19 4 Noroeste 8 Noroeste 0 -- -- 67
2019-09-25 21:00:00 20.2 4 Nordeste 7 Sudeste 0 -- -- 63
2019-09-25 20:00:00 23.5 6 Sudeste 17 Sudeste 0 -- -- 49
2019-09-25 19:00:00 25.7 15 Este 24 Este 0 -- -- 44
2019-09-25 18:00:00 27.8 14 Sudeste 24 Sudeste 0 -- -- 39
2019-09-25 17:00:00 29 15 Sudeste 27 Sudeste 0 -- -- 37
2019-09-25 16:00:00 29.8 18 Sudeste 30 Sudeste 0 -- -- 36
2019-09-25 15:00:00 30.1 11 Sudeste 25 Sudoeste 0 -- -- 35
2019-09-25 14:00:00 28.6 15 Sudoeste 30 Sudoeste 0 -- -- 37
2019-09-25 13:00:00 27.9 15 Sudoeste 27 Oeste 0 -- -- 40
2019-09-25 12:00:00 26.3 12 Sudoeste 19 Sudoeste 0 -- -- 41
2019-09-25 11:00:00 23.9 9 Oeste 24 Noroeste 0 -- -- 45
2019-09-25 10:00:00 21.3 16 Noroeste 26 Noroeste 0 -- -- 50
2019-09-25 09:00:00 19.8 11 Noroeste 26 Noroeste 0 -- -- 51
2019-09-25 08:00:00 17.3 14 Noroeste 23 Noroeste 0 -- -- 57
2019-09-25 07:00:00 18.5 5 Noroeste 26 Noroeste 0 -- -- 51
2019-09-25 06:00:00 18.5 8 Norte 18 Noroeste 0 -- -- 51
2019-09-25 05:00:00 19.6 14 Noroeste 32 Noroeste 0 -- -- 48
2019-09-25 04:00:00 18.9 10 Norte 20 Norte 0 -- -- 51
2019-09-25 03:00:00 20.4 12 Noroeste 28 Noroeste 0 -- -- 47
2019-09-25 02:00:00 20.2 13 Noroeste 20 Noroeste 0 -- -- 47
2019-09-25 01:00:00 19.6 10 Norte 23 Noroeste 0 -- -- 53
2019-09-25 00:00:00 18.9 8 Noroeste 18 Noroeste 0 -- -- 69
2019-09-24 23:00:00 19 4 Sudoeste 14 Noroeste 0 -- -- 73
2019-09-24 22:00:00 20.5 9 Noroeste 12 Noroeste 0 -- -- 67
2019-09-24 21:00:00 21.8 4 Nordeste 9 Este 0 -- -- 63
2019-09-24 20:00:00 24.8 4 Sudeste 19 Este 0 -- -- 53
2019-09-24 19:00:00 27.8 14 Este 20 Este 0 -- -- 44
2019-09-24 18:00:00 29.4 15 Sudeste 24 Sudeste 0 -- -- 39
2019-09-24 17:00:00 31 16 Sudeste 21 Sur 0 -- -- 30
2019-09-24 16:00:00 30.8 8 Este 40 Este 0 -- -- 27
2019-09-24 15:00:00 29.9 8 Este 14 Sudeste 0 -- -- 27
2019-09-24 14:00:00 28.4 7 Este 12 Este 0 -- -- 32
2019-09-24 13:00:00 27.4 3 Sudoeste 11 Nordeste 0 -- -- 34
2019-09-24 12:00:00 20.7 4 Sudeste 8 Norte 0 -- -- 54
2019-09-24 11:00:00 16.7 3 Nordeste 10 Norte 0 -- -- 76
2019-09-24 10:00:00 13.8 4 Nordeste 8 Noroeste 0 -- -- 84
2019-09-24 09:00:00 14.8 4 Noroeste 12 Noroeste 0 -- -- 82
2019-09-24 08:00:00 15.1 9 Noroeste 16 Norte 0 -- -- 83
2019-09-24 07:00:00 14.8 4 Oeste 12 Noroeste 0 -- -- 86
2019-09-24 06:00:00 15 0 Calma 15 Norte 0 -- -- 84
2019-09-24 05:00:00 15.3 5 Norte 10 Norte 0 -- -- 86
2019-09-24 04:00:00 15.6 5 Noroeste 8 Noroeste 0 -- -- 83
2019-09-24 03:00:00 15.5 2 Noroeste 5 Nordeste 0 -- -- 82
2019-09-24 02:00:00 16.7 0 Calma 12 Noroeste 0 -- -- 77
2019-09-24 01:00:00 17.3 6 Noroeste 8 Noroeste 0 -- -- 75
2019-09-24 00:00:00 19 4 Noroeste 9 Nordeste 0 -- -- 65
2019-09-23 23:00:00 19.5 6 Nordeste 12 Este 0 -- -- 66
2019-09-23 22:00:00 22.1 6 Sudeste 15 Sudeste 0 -- -- 60
2019-09-23 21:00:00 23.8 11 Sudeste 18 Sudeste 0 -- -- 55
2019-09-23 20:00:00 25.1 14 Sudeste 26 Sudeste 0 -- -- 53
2019-09-23 19:00:00 26 15 Este 32 Este 0 -- -- 52
2019-09-23 18:00:00 26.5 13 Este 23 Sudeste 0 -- -- 47
2019-09-23 17:00:00 26.7 12 Sudeste 26 Sur 0 -- -- 46
2019-09-23 16:00:00 -- -- -- -- -- -- -- -- --
2019-09-23 15:00:00 -- -- -- -- -- -- -- -- --
2019-09-23 14:00:00 -- -- -- -- -- -- -- -- --
2019-09-23 13:00:00 -- -- -- -- -- -- -- -- --
2019-09-23 12:00:00 -- -- -- -- -- -- -- -- --
2019-09-23 11:00:00 -- -- -- -- -- -- -- -- --
2019-09-23 10:00:00 -- -- -- -- -- -- -- -- --
2019-09-23 09:00:00 -- -- -- -- -- -- -- -- --
2019-09-23 08:00:00 -- -- -- -- -- -- -- -- --
2019-09-23 07:00:00 -- -- -- -- -- -- -- -- --
2019-09-23 06:00:00 -- -- -- -- -- -- -- -- --
2019-09-23 05:00:00 -- -- -- -- -- -- -- -- --
2019-09-23 04:00:00 -- -- -- -- -- -- -- -- --
2019-09-23 03:00:00 -- -- -- -- -- -- -- -- --
2019-09-23 02:00:00 -- -- -- -- -- -- -- -- --
2019-09-23 01:00:00 -- -- -- -- -- -- -- -- --
2019-09-23 00:00:00 -- -- -- -- -- -- -- -- --
2019-09-22 23:00:00 -- -- -- -- -- -- -- -- --
2019-09-22 22:00:00 -- -- -- -- -- -- -- -- --
2019-09-22 21:00:00 -- -- -- -- -- -- -- -- --
2019-09-22 20:00:00 -- -- -- -- -- -- -- -- --
2019-09-22 19:00:00 -- -- -- -- -- -- -- -- --
2019-09-22 18:00:00 -- -- -- -- -- -- -- -- --
2019-09-22 17:00:00 -- -- -- -- -- -- -- -- --
2019-09-22 16:00:00 -- -- -- -- -- -- -- -- --
2019-09-22 15:00:00 -- -- -- -- -- -- -- -- --
2019-09-22 14:00:00 -- -- -- -- -- -- -- -- --
2019-09-22 13:00:00 -- -- -- -- -- -- -- -- --
2019-09-22 12:00:00 -- -- -- -- -- -- -- -- --
2019-09-22 11:00:00 -- -- -- -- -- -- -- -- --
2019-09-22 10:00:00 -- -- -- -- -- -- -- -- --
2019-09-22 09:00:00 -- -- -- -- -- -- -- -- --
2019-09-22 08:00:00 -- -- -- -- -- -- -- -- --
2019-09-22 07:00:00 -- -- -- -- -- -- -- -- --
2019-09-22 06:00:00 -- -- -- -- -- -- -- -- --
2019-09-22 05:00:00 -- -- -- -- -- -- -- -- --
2019-09-22 04:00:00 -- -- -- -- -- -- -- -- --
2019-09-22 03:00:00 -- -- -- -- -- -- -- -- --
2019-09-22 02:00:00 -- -- -- -- -- -- -- -- --
2019-09-22 01:00:00 -- -- -- -- -- -- -- -- --
2019-09-22 00:00:00 -- -- -- -- -- -- -- -- --
2019-09-21 23:00:00 -- -- -- -- -- -- -- -- --
2019-09-21 22:00:00 -- -- -- -- -- -- -- -- --
2019-09-21 21:00:00 -- -- -- -- -- -- -- -- --
2019-09-21 20:00:00 -- -- -- -- -- -- -- -- --
2019-09-21 19:00:00 -- -- -- -- -- -- -- -- --
2019-09-21 18:00:00 -- -- -- -- -- -- -- -- --
2019-09-21 17:00:00 -- -- -- -- -- -- -- -- --
2019-09-21 16:00:00 -- -- -- -- -- -- -- -- --
2019-09-21 15:00:00 -- -- -- -- -- -- -- -- --
2019-09-21 14:00:00 -- -- -- -- -- -- -- -- --
2019-09-21 13:00:00 -- -- -- -- -- -- -- -- --
2019-09-21 12:00:00 -- -- -- -- -- -- -- -- --
2019-09-21 11:00:00 -- -- -- -- -- -- -- -- --
2019-09-21 10:00:00 -- -- -- -- -- -- -- -- --
2019-09-21 09:00:00 -- -- -- -- -- -- -- -- --
2019-09-21 08:00:00 -- -- -- -- -- -- -- -- --
2019-09-21 07:00:00 -- -- -- -- -- -- -- -- --
2019-09-21 06:00:00 -- -- -- -- -- -- -- -- --
2019-09-21 05:00:00 -- -- -- -- -- -- -- -- --
2019-09-21 04:00:00 -- -- -- -- -- -- -- -- --
2019-09-21 03:00:00 -- -- -- -- -- -- -- -- --
2019-09-21 02:00:00 -- -- -- -- -- -- -- -- --
2019-09-21 01:00:00 -- -- -- -- -- -- -- -- --
2019-09-21 00:00:00 -- -- -- -- -- -- -- -- --
2019-09-20 23:00:00 -- -- -- -- -- -- -- -- --
2019-09-20 22:00:00 -- -- -- -- -- -- -- -- --
2019-09-20 21:00:00 -- -- -- -- -- -- -- -- --
2019-09-20 20:00:00 -- -- -- -- -- -- -- -- --
2019-09-20 19:00:00 -- -- -- -- -- -- -- -- --
2019-09-20 18:00:00 -- -- -- -- -- -- -- -- --
2019-09-20 17:00:00 -- -- -- -- -- -- -- -- --
2019-09-20 16:00:00 23 16 Sudeste 23 Sudeste 0 -- -- 71
2019-09-20 15:00:00 23.3 14 Este 25 Este 0 -- -- 66
2019-09-20 14:00:00 22.8 15 Sudeste 25 Sudeste 0 -- -- 68
2019-09-20 13:00:00 21.4 5 Sudoeste 12 Oeste 0 -- -- 75
2019-09-20 12:00:00 21.8 5 Sur 10 Sur 0 -- -- 73
2019-09-20 11:00:00 21.3 3 Sudeste 13 Norte 0 -- -- 74
2019-09-20 10:00:00 19.1 9 Norte 14 Noroeste 0 -- -- 83
2019-09-20 09:00:00 17.6 7 Norte 15 Noroeste 0 -- -- 90
2019-09-20 08:00:00 16.7 10 Noroeste 16 Noroeste 0 -- -- 93
2019-09-20 07:00:00 17.1 6 Norte 9 Norte 0 -- -- 93
2019-09-20 06:00:00 17.6 0 Calma 6 Sur 0 -- -- 93
2019-09-20 05:00:00 17.7 2 Sudeste 10 Sur 0 -- -- 94
2019-09-20 04:00:00 18.2 3 Este 6 Este 0 -- -- 94
2019-09-20 03:00:00 18.6 5 Sudeste 6 Sudeste 0 -- -- 93
2019-09-20 02:00:00 19.2 3 Sur 4 Sur 0 -- -- 92
2019-09-20 01:00:00 19.2 3 Sur 5 Sudeste 0 -- -- 90
2019-09-20 00:00:00 19.7 0 Calma 6 Nordeste 0 -- -- 90
2019-09-19 23:00:00 20.1 4 Este 9 Este 0 -- -- 89
2019-09-19 22:00:00 20.3 5 Sur 8 Sur 0 -- -- 86
2019-09-19 21:00:00 20.9 6 Este 18 Sudeste 0 -- -- 83
2019-09-19 20:00:00 22.6 10 Este 23 Este 0 -- -- 74
2019-09-19 19:00:00 24.5 15 Este 25 Sudeste 0 -- -- 64
2019-09-19 18:00:00 26.1 16 Sudeste 24 Este 0 -- -- 56
2019-09-19 17:00:00 27.2 14 Sudeste 25 Sudeste 0 -- -- 49
2019-09-19 16:00:00 27.3 11 Sudeste 24 Sudeste 0 -- -- 45
2019-09-19 15:00:00 26.9 12 Sudeste 21 Este 0 -- -- 46
2019-09-19 14:00:00 26.7 8 Sudeste 17 Sudeste 0 -- -- 47
2019-09-19 13:00:00 22.7 4 Sur 8 Sur 0 -- -- 74
2019-09-19 12:00:00 20 3 Sur 5 Sur 0 -- -- 85
2019-09-19 11:00:00 17.8 2 Sur 6 Oeste 0 -- -- 92
2019-09-19 10:00:00 16.5 2 Noroeste 12 Noroeste 0 -- -- 94
2019-09-19 09:00:00 17.2 13 Norte 22 Noroeste 0 -- -- 91
2019-09-19 08:00:00 17.6 7 Noroeste 15 Noroeste 0 -- -- 91
2019-09-19 07:00:00 17.6 8 Noroeste 12 Noroeste 0 -- -- 93
2019-09-19 06:00:00 17.5 9 Noroeste 12 Noroeste 0 -- -- 93
2019-09-19 05:00:00 17.4 3 Norte 5 Este 0 -- -- 92
2019-09-19 04:00:00 18.4 2 Sudoeste 12 Noroeste 0 -- -- 91
2019-09-19 03:00:00 19 10 Norte 13 Norte 0 -- -- 90
2019-09-19 02:00:00 19.7 6 Noroeste 10 Noroeste 0 -- -- 89
2019-09-19 01:00:00 20.4 3 Noroeste 6 Norte 0 -- -- 88
2019-09-19 00:00:00 20.7 5 Norte 7 Norte 0 -- -- 88